Archival Weather

Norman Y Mineta San Jose Intl

San Jose, California (KSJC)

Report from: Wednesday, April 3, 2024 11:53 PM PDT
Current time: Tuesday, May 21, 2024 9:04 AM PDT

Current weather – Weather history – Daily summaries
Weather forecast

Temperature11.7°C (53.1°F)
Dew point3.3°C (37.9°F)
Winds 10 kts (5.1 m/s, 11.5 mph) West-Northwest (300°)
Visibility10 mi. (16.1 km)
Clouds Ceiling: Broken clouds 3,200 ft. (975 m)
Altimeter30.01 in.Hg (1016 mB)
Relative humidity56 %
Density altitude-374 ft. (-114 m)
Sea-level pressure101.6 kPa (1016 mB, 30.01 in.Hg)
Remarks Automated weather observing station with precipitation discriminator
Flight conditions Visual Meteorological Conditions
Raw dataKSJC 040653Z 30010KT 10SM BKN032 12/03 A3001 RMK AO2 SLP161 T01170033
An error has occurred. This application may no longer respond until reloaded. Reload 🗙